sensor_id;sensor_type;location;lat;lon;timestamp;pressure;altitude;pressure_sealevel;temperature;humidity
22653;BME280;11493;43.344;26.226;2022-08-01T00:00:37;98866.81;;;22.65;56.46
22653;BME280;11493;43.344;26.226;2022-08-01T00:03:05;98868.44;;;22.66;56.16
22653;BME280;11493;43.344;26.226;2022-08-01T00:05:32;98880.44;;;22.70;56.22
22653;BME280;11493;43.344;26.226;2022-08-01T00:07:59;98868.84;;;22.61;56.41
22653;BME280;11493;43.344;26.226;2022-08-01T00:10:27;98876.84;;;22.66;56.76
22653;BME280;11493;43.344;26.226;2022-08-01T00:12:54;98870.84;;;22.64;56.82
22653;BME280;11493;43.344;26.226;2022-08-01T00:15:21;98873.25;;;22.62;56.64
22653;BME280;11493;43.344;26.226;2022-08-01T00:17:48;98867.22;;;22.63;57.18
22653;BME280;11493;43.344;26.226;2022-08-01T00:20:16;98870.41;;;22.69;56.91
22653;BME280;11493;43.344;26.226;2022-08-01T00:22:43;98872.81;;;22.74;56.97
22653;BME280;11493;43.344;26.226;2022-08-01T00:25:10;98868.00;;;22.71;57.40
22653;BME280;11493;43.344;26.226;2022-08-01T00:27:37;98868.03;;;22.68;56.97
22653;BME280;11493;43.344;26.226;2022-08-01T00:30:05;98862.84;;;22.62;57.33
22653;BME280;11493;43.344;26.226;2022-08-01T00:32:41;98848.47;;;22.50;57.23
22653;BME280;11493;43.344;26.226;2022-08-01T00:35:09;98842.78;;;22.64;57.35
22653;BME280;11493;43.344;26.226;2022-08-01T00:37:37;98866.81;;;22.69;56.96
22653;BME280;11493;43.344;26.226;2022-08-01T00:40:05;98862.44;;;22.57;57.55
22653;BME280;11493;43.344;26.226;2022-08-01T00:42:32;98863.28;;;22.47;57.71
22653;BME280;11493;43.344;26.226;2022-08-01T00:45:04;98854.91;;;22.40;58.36
22653;BME280;11493;43.344;26.226;2022-08-01T00:47:31;98854.91;;;22.33;58.69
22653;BME280;11493;43.344;26.226;2022-08-01T00:49:59;98841.38;;;22.20;58.86
22653;BME280;11493;43.344;26.226;2022-08-01T00:52:26;98846.56;;;22.25;59.08
22653;BME280;11493;43.344;26.226;2022-08-01T00:54:53;98832.56;;;22.15;58.74
22653;BME280;11493;43.344;26.226;2022-08-01T00:57:21;98839.41;;;22.10;59.17
22653;BME280;11493;43.344;26.226;2022-08-01T01:00:09;98835.78;;;21.99;59.29
22653;BME280;11493;43.344;26.226;2022-08-01T01:02:38;98857.41;;;22.06;59.34
22653;BME280;11493;43.344;26.226;2022-08-01T01:05:06;98852.59;;;21.99;59.81
22653;BME280;11493;43.344;26.226;2022-08-01T01:07:54;98833.00;;;21.81;59.91
22653;BME280;11493;43.344;26.226;2022-08-01T01:13:45;98843.00;;;21.79;60.78
22653;BME280;11493;43.344;26.226;2022-08-01T01:16:18;98855.41;;;21.74;61.24
22653;BME280;11493;43.344;26.226;2022-08-01T01:18:49;98847.00;;;21.74;60.93
22653;BME280;11493;43.344;26.226;2022-08-01T01:26:23;98851.41;;;21.68;61.15
22653;BME280;11493;43.344;26.226;2022-08-01T01:29:06;98858.63;;;21.62;61.58
22653;BME280;11493;43.344;26.226;2022-08-01T01:31:42;98837.84;;;21.49;61.17
22653;BME280;11493;43.344;26.226;2022-08-01T01:34:12;98849.41;;;21.61;61.04
22653;BME280;11493;43.344;26.226;2022-08-01T01:36:42;98852.22;;;21.61;60.65
22653;BME280;11493;43.344;26.226;2022-08-01T01:39:11;98848.22;;;21.73;60.25
22653;BME280;11493;43.344;26.226;2022-08-01T01:41:38;98844.63;;;21.69;60.41
22653;BME280;11493;43.344;26.226;2022-08-01T01:44:07;98847.00;;;21.71;60.10
22653;BME280;11493;43.344;26.226;2022-08-01T01:46:36;98856.22;;;21.75;60.12
22653;BME280;11493;43.344;26.226;2022-08-01T01:49:04;98836.63;;;21.64;59.74
22653;BME280;11493;43.344;26.226;2022-08-01T01:51:33;98837.81;;;21.67;60.20
22653;BME280;11493;43.344;26.226;2022-08-01T01:54:00;98845.81;;;21.68;60.33
22653;BME280;11493;43.344;26.226;2022-08-01T01:56:29;98835.03;;;21.63;60.19
22653;BME280;11493;43.344;26.226;2022-08-01T01:59:00;98839.81;;;21.62;60.81
22653;BME280;11493;43.344;26.226;2022-08-01T02:01:29;98826.25;;;21.47;60.88
22653;BME280;11493;43.344;26.226;2022-08-01T02:04:19;98814.25;;;21.39;61.15
22653;BME280;11493;43.344;26.226;2022-08-01T02:06:53;98836.25;;;21.48;61.30
22653;BME280;11493;43.344;26.226;2022-08-01T02:09:21;98842.25;;;21.46;61.73
22653;BME280;11493;43.344;26.226;2022-08-01T02:11:49;98830.66;;;21.44;61.51
22653;BME280;11493;43.344;26.226;2022-08-01T02:14:55;98836.25;;;21.37;61.88
22653;BME280;11493;43.344;26.226;2022-08-01T02:17:24;98819.03;;;21.28;62.16
22653;BME280;11493;43.344;26.226;2022-08-01T02:19:52;98831.03;;;21.39;61.84
22653;BME280;11493;43.344;26.226;2022-08-01T02:22:27;98835.03;;;21.38;61.91
22653;BME280;11493;43.344;26.226;2022-08-01T02:25:07;98838.22;;;21.33;62.29
22653;BME280;11493;43.344;26.226;2022-08-01T02:27:42;98823.44;;;21.22;62.52
22653;BME280;11493;43.344;26.226;2022-08-01T02:30:13;98821.84;;;21.28;63.00
22653;BME280;11493;43.344;26.226;2022-08-01T02:32:51;98832.22;;;21.24;63.20
22653;BME280;11493;43.344;26.226;2022-08-01T02:35:30;98815.78;;;21.05;63.17
22653;BME280;11493;43.344;26.226;2022-08-01T02:38:00;98811.78;;;20.95;63.39
22653;BME280;11493;43.344;26.226;2022-08-01T02:40:30;98823.38;;;21.00;63.21
22653;BME280;11493;43.344;26.226;2022-08-01T02:43:02;98822.97;;;20.98;63.69
22653;BME280;11493;43.344;26.226;2022-08-01T02:45:31;98821.38;;;20.97;63.97
22653;BME280;11493;43.344;26.226;2022-08-01T02:48:07;98817.34;;;20.88;64.32
22653;BME280;11493;43.344;26.226;2022-08-01T02:50:37;98829.31;;;20.85;64.67
22653;BME280;11493;43.344;26.226;2022-08-01T02:53:06;98825.31;;;20.82;64.66
22653;BME280;11493;43.344;26.226;2022-08-01T02:55:38;98795.34;;;20.65;64.75
22653;BME280;11493;43.344;26.226;2022-08-01T02:58:08;98759.28;;;20.35;64.82
22653;BME280;11493;43.344;26.226;2022-08-01T03:00:39;98813.75;;;20.73;65.17
22653;BME280;11493;43.344;26.226;2022-08-01T03:03:10;98798.53;;;20.63;65.26
22653;BME280;11493;43.344;26.226;2022-08-01T03:05:38;98797.38;;;20.72;65.13
22653;BME280;11493;43.344;26.226;2022-08-01T03:08:09;98737.28;;;20.23;65.18
22653;BME280;11493;43.344;26.226;2022-08-01T03:10:42;98800.53;;;20.59;65.34
22653;BME280;11493;43.344;26.226;2022-08-01T03:13:11;98814.13;;;20.72;65.59
22653;BME280;11493;43.344;26.226;2022-08-01T03:15:42;98802.50;;;20.59;65.49
22653;BME280;11493;43.344;26.226;2022-08-01T03:18:11;98814.94;;;20.69;65.31
22653;BME280;11493;43.344;26.226;2022-08-01T03:20:39;98810.13;;;20.69;65.60
22653;BME280;11493;43.344;26.226;2022-08-01T03:23:11;98766.91;;;20.38;65.72
22653;BME280;11493;43.344;26.226;2022-08-01T03:25:40;98815.69;;;20.58;66.27
22653;BME280;11493;43.344;26.226;2022-08-01T03:28:12;98794.78;;;20.27;66.88
22653;BME280;11493;43.344;26.226;2022-08-01T03:30:42;98797.13;;;20.18;67.67
22653;BME280;11493;43.344;26.226;2022-08-01T03:33:10;98809.91;;;20.19;67.89
22653;BME280;11493;43.344;26.226;2022-08-01T03:35:46;98811.06;;;20.11;68.53
22653;BME280;11493;43.344;26.226;2022-08-01T03:38:18;98811.84;;;20.12;68.53
22653;BME280;11493;43.344;26.226;2022-08-01T03:40:54;98794.25;;;19.97;68.75
22653;BME280;11493;43.344;26.226;2022-08-01T03:43:33;98805.47;;;20.11;68.82
22653;BME280;11493;43.344;26.226;2022-08-01T03:46:13;98798.72;;;20.19;68.45
22653;BME280;11493;43.344;26.226;2022-08-01T03:48:47;98795.16;;;20.22;67.99
22653;BME280;11493;43.344;26.226;2022-08-01T03:51:17;98790.78;;;20.28;68.05
22653;BME280;11493;43.344;26.226;2022-08-01T03:53:45;98797.66;;;20.42;67.64
22653;BME280;11493;43.344;26.226;2022-08-01T03:56:18;98784.91;;;20.44;67.17
22653;BME280;11493;43.344;26.226;2022-08-01T03:58:47;98788.53;;;20.59;66.80
22653;BME280;11493;43.344;26.226;2022-08-01T04:01:17;98794.16;;;20.70;66.30
22653;BME280;11493;43.344;26.226;2022-08-01T04:03:45;98798.97;;;20.76;66.10
22653;BME280;11493;43.344;26.226;2022-08-01T04:06:12;98799.75;;;20.87;66.16
22653;BME280;11493;43.344;26.226;2022-08-01T04:08:41;98799.78;;;21.02;65.51
22653;BME280;11493;43.344;26.226;2022-08-01T04:11:09;98808.59;;;21.07;65.52
22653;BME280;11493;43.344;26.226;2022-08-01T04:13:37;98791.00;;;21.07;65.86
22653;BME280;11493;43.344;26.226;2022-08-01T04:16:04;98791.44;;;21.19;65.96
22653;BME280;11493;43.344;26.226;2022-08-01T04:18:32;98790.22;;;21.20;66.37
22653;BME280;11493;43.344;26.226;2022-08-01T04:20:59;98796.25;;;21.29;65.68
22653;BME280;11493;43.344;26.226;2022-08-01T04:23:27;98783.88;;;21.48;65.59
22653;BME280;11493;43.344;26.226;2022-08-01T04:25:59;98789.47;;;21.52;64.85
22653;BME280;11493;43.344;26.226;2022-08-01T04:28:28;98793.41;;;21.65;64.47
22653;BME280;11493;43.344;26.226;2022-08-01T04:30:58;98775.03;;;21.64;63.74
22653;BME280;11493;43.344;26.226;2022-08-01T04:33:29;98779.81;;;21.71;63.15
22653;BME280;11493;43.344;26.226;2022-08-01T04:35:59;98785.00;;;21.72;62.80
22653;BME280;11493;43.344;26.226;2022-08-01T04:38:33;98761.41;;;21.80;62.83
22653;BME280;11493;43.344;26.226;2022-08-01T04:41:04;98800.56;;;21.98;62.79
22653;BME280;11493;43.344;26.226;2022-08-01T04:43:38;98790.97;;;21.99;62.44
22653;BME280;11493;43.344;26.226;2022-08-01T04:46:07;98798.97;;;22.08;62.47
22653;BME280;11493;43.344;26.226;2022-08-01T04:48:37;98795.34;;;22.18;61.98
22653;BME280;11493;43.344;26.226;2022-08-01T04:51:12;98784.53;;;22.16;61.60
22653;BME280;11493;43.344;26.226;2022-08-01T04:53:41;98794.03;;;22.37;60.71
22653;BME280;11493;43.344;26.226;2022-08-01T04:56:09;98774.44;;;22.29;60.09
22653;BME280;11493;43.344;26.226;2022-08-01T04:58:36;98791.22;;;22.40;58.73
22653;BME280;11493;43.344;26.226;2022-08-01T05:01:03;98796.84;;;22.40;58.58
22653;BME280;11493;43.344;26.226;2022-08-01T05:03:31;98782.41;;;22.42;58.66
22653;BME280;11493;43.344;26.226;2022-08-01T05:06:04;98784.78;;;22.47;58.07
22653;BME280;11493;43.344;26.226;2022-08-01T05:08:32;98778.34;;;22.53;57.95
22653;BME280;11493;43.344;26.226;2022-08-01T05:10:59;98782.75;;;22.58;57.97
22653;BME280;11493;43.344;26.226;2022-08-01T05:13:28;98781.06;;;22.75;55.76
22653;BME280;11493;43.344;26.226;2022-08-01T05:15:57;98777.03;;;22.83;54.61
22653;BME280;11493;43.344;26.226;2022-08-01T05:18:25;98786.22;;;22.87;52.28
22653;BME280;11493;43.344;26.226;2022-08-01T05:20:54;98775.44;;;22.82;52.18
22653;BME280;11493;43.344;26.226;2022-08-01T05:23:22;98770.56;;;22.89;51.38
22653;BME280;11493;43.344;26.226;2022-08-01T05:26:10;98774.53;;;22.96;50.73
22653;BME280;11493;43.344;26.226;2022-08-01T05:28:41;98785.69;;;23.03;50.99
22653;BME280;11493;43.344;26.226;2022-08-01T05:31:09;98784.00;;;23.12;50.96
22653;BME280;11493;43.344;26.226;2022-08-01T05:33:36;98764.38;;;23.12;50.53
22653;BME280;11493;43.344;26.226;2022-08-01T05:36:03;98776.72;;;23.22;50.71
22653;BME280;11493;43.344;26.226;2022-08-01T05:38:31;98767.47;;;23.25;50.58
22653;BME280;11493;43.344;26.226;2022-08-01T05:40:58;98774.59;;;23.37;49.57
22653;BME280;11493;43.344;26.226;2022-08-01T05:43:25;98770.59;;;23.38;49.95
22653;BME280;11493;43.344;26.226;2022-08-01T05:45:55;98758.94;;;23.39;50.04
22653;BME280;11493;43.344;26.226;2022-08-01T05:48:22;98772.47;;;23.51;49.49
22653;BME280;11493;43.344;26.226;2022-08-01T05:50:50;98777.25;;;23.58;49.01
22653;BME280;11493;43.344;26.226;2022-08-01T05:53:24;98783.28;;;23.56;48.50
22653;BME280;11493;43.344;26.226;2022-08-01T05:55:52;98778.09;;;23.55;49.26
22653;BME280;11493;43.344;26.226;2022-08-01T05:58:19;98777.66;;;23.56;49.90
22653;BME280;11493;43.344;26.226;2022-08-01T06:00:46;98774.00;;;23.63;48.87
22653;BME280;11493;43.344;26.226;2022-08-01T06:03:14;98774.38;;;23.65;48.83
22653;BME280;11493;43.344;26.226;2022-08-01T06:05:42;98761.56;;;23.64;48.65
22653;BME280;11493;43.344;26.226;2022-08-01T06:08:09;98771.53;;;23.69;49.21
22653;BME280;11493;43.344;26.226;2022-08-01T06:10:36;98761.06;;;23.73;48.69
22653;BME280;11493;43.344;26.226;2022-08-01T06:13:03;98774.06;;;23.93;48.23
22653;BME280;11493;43.344;26.226;2022-08-01T06:15:31;98773.56;;;24.02;47.50
22653;BME280;11493;43.344;26.226;2022-08-01T06:17:59;98756.59;;;24.13;47.95
22653;BME280;11493;43.344;26.226;2022-08-01T06:20:27;98760.50;;;24.22;48.66
22653;BME280;11493;43.344;26.226;2022-08-01T06:22:54;98760.06;;;24.28;48.00
22653;BME280;11493;43.344;26.226;2022-08-01T06:25:22;98751.19;;;24.29;47.45
22653;BME280;11493;43.344;26.226;2022-08-01T06:27:49;98756.41;;;24.31;47.75
22653;BME280;11493;43.344;26.226;2022-08-01T06:30:16;98743.56;;;24.30;46.67
22653;BME280;11493;43.344;26.226;2022-08-01T06:32:43;98748.88;;;24.20;46.88
22653;BME280;11493;43.344;26.226;2022-08-01T06:35:11;98743.97;;;24.28;47.20
22653;BME280;11493;43.344;26.226;2022-08-01T06:37:38;98765.69;;;24.28;47.02
22653;BME280;11493;43.344;26.226;2022-08-01T06:40:09;98756.81;;;24.29;46.90
22653;BME280;11493;43.344;26.226;2022-08-01T06:42:42;98749.94;;;24.34;47.58
22653;BME280;11493;43.344;26.226;2022-08-01T06:45:11;98754.72;;;24.37;46.85
22653;BME280;11493;43.344;26.226;2022-08-01T06:47:39;98742.22;;;24.41;47.58
22653;BME280;11493;43.344;26.226;2022-08-01T06:50:07;98743.53;;;24.60;46.68
22653;BME280;11493;43.344;26.226;2022-08-01T06:52:37;98751.72;;;24.78;46.91
22653;BME280;11493;43.344;26.226;2022-08-01T06:55:05;98735.59;;;24.82;47.03
22653;BME280;11493;43.344;26.226;2022-08-01T06:57:32;98733.09;;;24.87;46.68
22653;BME280;11493;43.344;26.226;2022-08-01T07:00:05;98733.78;;;24.95;46.57
22653;BME280;11493;43.344;26.226;2022-08-01T07:02:38;98730.94;;;24.99;46.72
22653;BME280;11493;43.344;26.226;2022-08-01T07:05:05;98743.94;;;25.16;46.29
22653;BME280;11493;43.344;26.226;2022-08-01T07:07:33;98740.56;;;25.25;45.98
22653;BME280;11493;43.344;26.226;2022-08-01T07:10:00;98752.84;;;25.34;45.60
22653;BME280;11493;43.344;26.226;2022-08-01T07:12:28;98745.31;;;25.28;45.86
22653;BME280;11493;43.344;26.226;2022-08-01T07:14:55;98749.31;;;25.30;45.81
22653;BME280;11493;43.344;26.226;2022-08-01T07:17:23;98745.38;;;25.47;45.21
22653;BME280;11493;43.344;26.226;2022-08-01T07:19:50;98749.38;;;25.50;45.19
22653;BME280;11493;43.344;26.226;2022-08-01T07:22:17;98736.13;;;25.47;44.66
22653;BME280;11493;43.344;26.226;2022-08-01T07:24:49;98741.34;;;25.48;45.09
22653;BME280;11493;43.344;26.226;2022-08-01T07:27:20;98752.13;;;25.53;45.08
22653;BME280;11493;43.344;26.226;2022-08-01T07:29:52;98740.13;;;25.49;45.04
22653;BME280;11493;43.344;26.226;2022-08-01T07:32:19;98738.22;;;25.43;45.83
22653;BME280;11493;43.344;26.226;2022-08-01T07:34:47;98739.75;;;25.47;45.39
22653;BME280;11493;43.344;26.226;2022-08-01T07:37:14;98731.44;;;25.40;45.28
22653;BME280;11493;43.344;26.226;2022-08-01T07:39:41;98732.03;;;25.51;45.64
22653;BME280;11493;43.344;26.226;2022-08-01T07:42:09;98727.50;;;25.58;45.11
22653;BME280;11493;43.344;26.226;2022-08-01T07:44:37;98731.91;;;25.59;45.30
22653;BME280;11493;43.344;26.226;2022-08-01T07:47:05;98741.53;;;25.61;45.32
22653;BME280;11493;43.344;26.226;2022-08-01T07:49:32;98730.94;;;25.69;45.21
22653;BME280;11493;43.344;26.226;2022-08-01T07:52:06;98747.41;;;25.94;44.77
22653;BME280;11493;43.344;26.226;2022-08-01T07:54:34;98753.09;;;25.90;44.57
22653;BME280;11493;43.344;26.226;2022-08-01T07:57:02;98756.28;;;25.92;44.91
22653;BME280;11493;43.344;26.226;2022-08-01T07:59:30;98749.84;;;25.92;44.72
22653;BME280;11493;43.344;26.226;2022-08-01T08:01:58;98762.47;;;26.03;45.04
22653;BME280;11493;43.344;26.226;2022-08-01T08:04:26;98771.47;;;25.98;44.97
22653;BME280;11493;43.344;26.226;2022-08-01T08:06:54;98760.47;;;26.04;44.36
22653;BME280;11493;43.344;26.226;2022-08-01T08:09:21;98745.56;;;26.03;45.32
22653;BME280;11493;43.344;26.226;2022-08-01T08:11:49;98753.22;;;26.23;44.49
22653;BME280;11493;43.344;26.226;2022-08-01T08:14:17;98751.44;;;26.32;44.78
22653;BME280;11493;43.344;26.226;2022-08-01T08:16:45;98754.13;;;26.39;44.58
22653;BME280;11493;43.344;26.226;2022-08-01T08:19:12;98758.09;;;26.42;44.45
22653;BME280;11493;43.344;26.226;2022-08-01T08:21:40;98755.53;;;26.28;45.35
22653;BME280;11493;43.344;26.226;2022-08-01T08:24:08;98754.47;;;26.22;44.45
22653;BME280;11493;43.344;26.226;2022-08-01T08:26:55;98759.16;;;26.28;44.87
22653;BME280;11493;43.344;26.226;2022-08-01T08:29:24;98744.06;;;26.38;45.48
22653;BME280;11493;43.344;26.226;2022-08-01T08:31:53;98749.25;;;26.60;44.19
22653;BME280;11493;43.344;26.226;2022-08-01T08:34:23;98751.66;;;26.61;43.97
22653;BME280;11493;43.344;26.226;2022-08-01T08:36:51;98762.78;;;26.68;44.10
22653;BME280;11493;43.344;26.226;2022-08-01T08:39:19;98757.66;;;26.63;44.76
22653;BME280;11493;43.344;26.226;2022-08-01T08:41:47;98762.50;;;26.63;43.58
22653;BME280;11493;43.344;26.226;2022-08-01T08:44:16;98761.69;;;26.62;44.41
22653;BME280;11493;43.344;26.226;2022-08-01T08:46:46;98751.84;;;26.70;44.71
22653;BME280;11493;43.344;26.226;2022-08-01T08:49:19;98760.31;;;26.70;46.22
22653;BME280;11493;43.344;26.226;2022-08-01T08:51:49;98760.53;;;26.60;46.29
22653;BME280;11493;43.344;26.226;2022-08-01T08:54:18;98763.88;;;26.55;46.94
22653;BME280;11493;43.344;26.226;2022-08-01T08:56:58;98764.72;;;26.71;47.12
22653;BME280;11493;43.344;26.226;2022-08-01T08:59:26;98765.88;;;26.74;47.52
22653;BME280;11493;43.344;26.226;2022-08-01T09:01:53;98769.56;;;26.71;47.38
22653;BME280;11493;43.344;26.226;2022-08-01T09:04:21;98769.13;;;26.72;47.51
22653;BME280;11493;43.344;26.226;2022-08-01T09:06:53;98778.84;;;26.71;47.99
22653;BME280;11493;43.344;26.226;2022-08-01T09:09:22;98780.44;;;26.72;48.18
22653;BME280;11493;43.344;26.226;2022-08-01T09:11:50;98774.22;;;26.77;47.94
22653;BME280;11493;43.344;26.226;2022-08-01T09:14:25;98757.84;;;26.72;47.99
22653;BME280;11493;43.344;26.226;2022-08-01T09:17:07;98773.34;;;26.80;47.35
22653;BME280;11493;43.344;26.226;2022-08-01T09:19:36;98774.44;;;26.87;47.46
22653;BME280;11493;43.344;26.226;2022-08-01T09:22:12;98734.28;;;26.63;47.37
22653;BME280;11493;43.344;26.226;2022-08-01T09:24:41;98796.84;;;26.94;47.78
22653;BME280;11493;43.344;26.226;2022-08-01T09:27:21;98782.25;;;26.99;47.73
22653;BME280;11493;43.344;26.226;2022-08-01T09:29:54;98777.66;;;27.05;47.42
22653;BME280;11493;43.344;26.226;2022-08-01T09:32:31;98788.97;;;27.05;49.13
22653;BME280;11493;43.344;26.226;2022-08-01T09:35:31;98764.34;;;27.05;48.84
22653;BME280;11493;43.344;26.226;2022-08-01T09:38:21;98774.59;;;27.15;48.45
22653;BME280;11493;43.344;26.226;2022-08-01T09:40:52;98780.25;;;27.15;48.72
22653;BME280;11493;43.344;26.226;2022-08-01T09:43:24;98762.25;;;27.26;50.06
22653;BME280;11493;43.344;26.226;2022-08-01T09:45:56;98768.34;;;27.40;48.02
22653;BME280;11493;43.344;26.226;2022-08-01T09:48:24;98779.19;;;26.90;49.18
22653;BME280;11493;43.344;26.226;2022-08-01T09:50:56;98787.88;;;26.63;50.18
22653;BME280;11493;43.344;26.226;2022-08-01T09:53:47;98776.19;;;26.80;50.75
22653;BME280;11493;43.344;26.226;2022-08-01T09:56:20;98783.31;;;27.05;50.36
22653;BME280;11493;43.344;26.226;2022-08-01T09:58:56;98786.59;;;27.03;50.34
22653;BME280;11493;43.344;26.226;2022-08-01T10:01:48;98788.81;;;26.92;50.25
22653;BME280;11493;43.344;26.226;2022-08-01T10:04:22;98773.81;;;27.15;50.50
22653;BME280;11493;43.344;26.226;2022-08-01T10:07:04;98766.56;;;27.14;50.14
22653;BME280;11493;43.344;26.226;2022-08-01T10:09:34;98773.09;;;27.11;50.07
22653;BME280;11493;43.344;26.226;2022-08-01T10:12:08;98771.34;;;27.33;50.39
22653;BME280;11493;43.344;26.226;2022-08-01T10:14:43;98764.19;;;27.45;50.41
22653;BME280;11493;43.344;26.226;2022-08-01T10:17:14;98774.00;;;27.40;50.37
22653;BME280;11493;43.344;26.226;2022-08-01T10:19:45;98769.22;;;27.37;49.81
22653;BME280;11493;43.344;26.226;2022-08-01T10:22:13;98761.91;;;27.40;50.27
22653;BME280;11493;43.344;26.226;2022-08-01T10:24:46;98758.78;;;27.50;50.97
22653;BME280;11493;43.344;26.226;2022-08-01T10:27:15;98762.91;;;27.78;50.28
22653;BME280;11493;43.344;26.226;2022-08-01T10:30:04;98771.38;;;27.95;50.03
22653;BME280;11493;43.344;26.226;2022-08-01T10:32:50;98761.59;;;28.12;49.08
22653;BME280;11493;43.344;26.226;2022-08-01T10:35:21;98764.75;;;27.85;48.96
22653;BME280;11493;43.344;26.226;2022-08-01T10:38:09;98750.03;;;27.61;48.88
22653;BME280;11493;43.344;26.226;2022-08-01T10:40:41;98758.47;;;27.94;49.48
22653;BME280;11493;43.344;26.226;2022-08-01T10:43:12;98742.34;;;28.07;48.75
22653;BME280;11493;43.344;26.226;2022-08-01T10:45:48;98754.53;;;28.33;48.53
22653;BME280;11493;43.344;26.226;2022-08-01T10:50:49;98756.59;;;28.45;47.12
22653;BME280;11493;43.344;26.226;2022-08-01T10:53:23;98755.91;;;28.41;47.25
22653;BME280;11493;43.344;26.226;2022-08-01T10:56:08;98749.84;;;28.55;47.44
22653;BME280;11493;43.344;26.226;2022-08-01T10:58:44;98684.59;;;28.33;47.53
22653;BME280;11493;43.344;26.226;2022-08-01T11:03:43;98744.19;;;28.68;45.85
22653;BME280;11493;43.344;26.226;2022-08-01T11:06:42;98743.81;;;28.40;46.98
22653;BME280;11493;43.344;26.226;2022-08-01T11:11:59;98746.97;;;28.42;47.22
22653;BME280;11493;43.344;26.226;2022-08-01T11:14:33;98750.38;;;28.37;46.70
22653;BME280;11493;43.344;26.226;2022-08-01T11:28:25;98729.56;;;28.44;47.30
22653;BME280;11493;43.344;26.226;2022-08-01T11:38:43;98732.25;;;28.35;47.09
22653;BME280;11493;43.344;26.226;2022-08-01T11:44:09;98735.69;;;28.68;47.59
22653;BME280;11493;43.344;26.226;2022-08-01T11:47:06;98730.94;;;28.52;47.74
22653;BME280;11493;43.344;26.226;2022-08-01T11:49:45;98725.69;;;28.38;48.52
22653;BME280;11493;43.344;26.226;2022-08-01T11:52:23;98733.50;;;28.34;49.06
22653;BME280;11493;43.344;26.226;2022-08-01T11:54:53;98729.97;;;28.30;49.22
22653;BME280;11493;43.344;26.226;2022-08-01T11:57:26;98740.59;;;28.26;49.58
22653;BME280;11493;43.344;26.226;2022-08-01T12:00:04;98736.44;;;28.01;49.46
22653;BME280;11493;43.344;26.226;2022-08-01T12:02:41;98740.00;;;27.89;50.23
22653;BME280;11493;43.344;26.226;2022-08-01T12:05:13;98724.97;;;27.92;50.37
22653;BME280;11493;43.344;26.226;2022-08-01T12:07:49;98698.44;;;28.02;50.51
22653;BME280;11493;43.344;26.226;2022-08-01T12:10:19;98735.97;;;28.32;49.09
22653;BME280;11493;43.344;26.226;2022-08-01T12:12:58;98723.59;;;28.67;49.13
22653;BME280;11493;43.344;26.226;2022-08-01T12:15:36;98705.38;;;28.81;47.86
22653;BME280;11493;43.344;26.226;2022-08-01T12:18:06;98727.00;;;29.13;47.13
22653;BME280;11493;43.344;26.226;2022-08-01T12:20:36;98704.00;;;29.11;46.69
22653;BME280;11493;43.344;26.226;2022-08-01T12:23:20;98726.00;;;28.94;46.51
22653;BME280;11493;43.344;26.226;2022-08-01T12:25:51;98668.31;;;28.50;46.81
22653;BME280;11493;43.344;26.226;2022-08-01T12:28:18;98718.66;;;28.97;46.52
22653;BME280;11493;43.344;26.226;2022-08-01T12:30:48;98715.66;;;29.13;46.05
22653;BME280;11493;43.344;26.226;2022-08-01T12:33:20;98708.97;;;29.07;46.38
22653;BME280;11493;43.344;26.226;2022-08-01T12:35:48;98706.91;;;29.20;46.45
22653;BME280;11493;43.344;26.226;2022-08-01T12:38:18;98695.56;;;29.33;45.84
22653;BME280;11493;43.344;26.226;2022-08-01T12:40:47;98700.91;;;29.31;44.93
22653;BME280;11493;43.344;26.226;2022-08-01T12:43:21;98694.09;;;29.28;44.22
22653;BME280;11493;43.344;26.226;2022-08-01T12:45:57;98700.09;;;29.43;44.06
22653;BME280;11493;43.344;26.226;2022-08-01T12:48:26;98714.50;;;29.23;44.69
22653;BME280;11493;43.344;26.226;2022-08-01T12:50:55;98694.44;;;29.30;44.65
22653;BME280;11493;43.344;26.226;2022-08-01T12:53:25;98707.69;;;29.46;44.63
22653;BME280;11493;43.344;26.226;2022-08-01T12:56:08;98693.97;;;29.45;44.45
22653;BME280;11493;43.344;26.226;2022-08-01T12:58:38;98696.34;;;29.33;44.17
22653;BME280;11493;43.344;26.226;2022-08-01T13:01:08;98692.84;;;29.42;45.15
22653;BME280;11493;43.344;26.226;2022-08-01T13:03:36;98690.69;;;29.33;45.19
22653;BME280;11493;43.344;26.226;2022-08-01T13:06:12;98696.22;;;29.50;44.21
22653;BME280;11493;43.344;26.226;2022-08-01T13:08:42;98683.53;;;29.54;44.20
22653;BME280;11493;43.344;26.226;2022-08-01T13:11:12;98691.69;;;29.74;42.88
22653;BME280;11493;43.344;26.226;2022-08-01T13:13:51;98688.94;;;29.61;42.96
22653;BME280;11493;43.344;26.226;2022-08-01T13:16:22;98682.31;;;29.42;42.95
22653;BME280;11493;43.344;26.226;2022-08-01T13:19:09;98696.22;;;29.50;44.42
22653;BME280;11493;43.344;26.226;2022-08-01T13:21:36;98689.91;;;29.46;44.27
22653;BME280;11493;43.344;26.226;2022-08-01T13:24:28;98695.94;;;29.69;44.42
22653;BME280;11493;43.344;26.226;2022-08-01T13:27:29;98695.66;;;29.76;43.49
22653;BME280;11493;43.344;26.226;2022-08-01T13:30:16;98697.34;;;29.52;42.73
22653;BME280;11493;43.344;26.226;2022-08-01T13:32:57;98692.06;;;29.41;42.41
22653;BME280;11493;43.344;26.226;2022-08-01T13:35:25;98710.44;;;29.24;42.18
22653;BME280;11493;43.344;26.226;2022-08-01T13:37:53;98694.22;;;29.25;42.19
22653;BME280;11493;43.344;26.226;2022-08-01T13:40:25;98700.09;;;29.30;42.85
22653;BME280;11493;43.344;26.226;2022-08-01T13:42:54;98709.50;;;29.40;43.01
22653;BME280;11493;43.344;26.226;2022-08-01T13:45:23;98710.75;;;29.39;42.04
22653;BME280;11493;43.344;26.226;2022-08-01T13:47:52;98701.91;;;29.37;42.45
22653;BME280;11493;43.344;26.226;2022-08-01T13:50:39;98698.28;;;29.36;42.32